^^

Nearby METAR Reports

 

EGHH - Bournemouth Airp, United Kingdom
Distance from station: S 10mi, 17km
Updated: 24/06/2019 23:20
NOT Current
Mist, Partly cloudy
Mist, Partly cloudy
 Wind from NW
Wind: NW 5 mph , 7 km/h
Temperature: 16°C
Dew Point: 15°C
Humidity: 94%
Barometer: 1018 hPa
Summary: Mist
Clouds: Partly cloudy
Visibility: 3 miles , 5 km
2019/06/24 22:20 EGHH 242220Z 32004KT 4800 BR NSC 16/15 Q1018
EGDM - Boscombe Down, United Kingdom
Distance from station: N 16mi, 26km
Updated: 24/06/2019 23:50
Overcast
Overcast
 Wind from NW
Wind: NW 6 mph , 9 km/h
Temperature: 17°C
Dew Point: 14°C
Humidity: 83%
Barometer: 1018 hPa
Clouds: Overcast
Visibility: 6 miles , 10 km
Cloud details: Overcast 2438 m
2019/06/24 22:50 EGDM 242250Z AUTO 31005KT 9999 OVC080/// 17/14 Q1018 RERA
 
EGVP - Middle Wallop, United Kingdom
Distance from station: NE 17mi, 27km
Updated: 25/06/2019 00:20
Light rain, Overcast
Light rain, Overcast
 Wind from WNW
Wind: WNW 2 mph , 4 km/h
Temperature: 17°C
Dew Point: 15°C
Humidity: 88%
Barometer: 1018 hPa
Summary: Light rain
Clouds: Overcast
Visibility: 6 miles , 10 km
Cloud details: Mostly cloudy 2134 m
Overcast 3048 m
2019/06/24 23:20 EGVP 242320Z 30002KT 9999 -RA BKN070 OVC100 17/15 Q1018 NOSIG RMK BLU BLU
EGHI - Southampton Wx C, United Kingdom
Distance from station: E 19mi, 31km
Updated: 24/06/2019 22:20
NOT Current
Clear
Clear
 Wind from calm
Wind: Calm
Temperature: 16°C
Dew Point: 13°C
Humidity: 83%
Barometer: 1018 hPa
Summary: Clear
Visibility: greater than 7 miles , 10 km
2019/06/24 21:20 EGHI 242120Z 00000KT CAVOK 16/13 Q1018
 
EGDY - Yeovilton (navy), United Kingdom
Distance from station: W 36mi, 58km
Updated: 24/06/2019 23:50
Light rain, Mostly cloudy
Light rain, Mostly cloudy
 Wind from N
Wind: N 2 mph , 4 km/h
Temperature: 15°C
Dew Point: 14°C
Humidity: 94%
Barometer: 1018 hPa
Summary: Light rain
Clouds: Mostly cloudy
Visibility: 6 miles , 10 km
Cloud details: Partly cloudy 3048 m
Mostly cloudy 4877 m
2019/06/24 22:50 EGDY 242250Z 35002KT 9999 -RA SCT100 BKN160 15/14 Q1018 BLU
EGUO - Colerne Raf, United Kingdom
Distance from station: NNW 41mi, 66km
Updated: 14/02/2019 22:50
NOT Current
Clear
Clear
 Wind from ENE
Wind: ENE 1 mph , 2 km/h
Temperature: 1°C
Dew Point: 0°C
Humidity: 93%
Barometer: 1029 hPa
Summary: Clear
Visibility: greater than 7 miles , 10 km
2019/02/14 22:50 EGUO 142250Z 06001KT CAVOK 01/00 Q1029 BLU NOSIG
 
EGVO - Odiham Raf, United Kingdom
Distance from station: ENE 42mi, 68km
Updated: 24/06/2019 23:50
Light rain, Overcast
Light rain, Overcast
 Wind from ESE
Wind: ESE 3 mph , 6 km/h
Temperature: 17°C
Dew Point: 16°C
Humidity: 94%
Barometer: 1018 hPa
Summary: Light rain
Clouds: Overcast
Visibility: 6 miles , 10 km
Cloud details: Overcast 2438 m
2019/06/24 22:50 EGVO 242250Z 11003KT 9999 -RA OVC080 17/16 Q1018 RMK BLU
EGGD - Bristol/Lulsgate, United Kingdom
Distance from station: NW 50mi, 81km
Updated: 25/06/2019 00:20
Mist, Overcast
Mist, Overcast
 Wind from WSW
Wind: WSW 6 mph , 9 km/h
Temperature: 14°C
Dew Point: 14°C
Humidity: 100%
Barometer: 1018 hPa
Summary: Mist
Clouds: Overcast
Visibility: 1 mile , 1 km
Cloud details: Overcast 30 m
2019/06/24 23:20 EGGD 242320Z AUTO 24005KT 1100 R27/P1500 BR OVC001 14/14 Q1018